createdAt,value
2018-11-28T00:01:11.171Z,59.75
2018-11-28T00:02:45.360Z,56.10
2018-11-28T00:04:19.517Z,62.27
2018-11-28T00:05:53.664Z,57.58
2018-11-28T00:07:27.851Z,49.10
2018-11-28T00:09:02.044Z,55.08
2018-11-28T00:10:36.176Z,57.13
2018-11-28T00:12:10.343Z,56.37
2018-11-28T00:13:44.450Z,56.00
2018-11-28T00:15:18.641Z,56.60
2018-11-28T00:16:52.753Z,54.60
2018-11-28T00:18:33.419Z,54.42
2018-11-28T00:20:16.791Z,55.40
2018-11-28T00:21:50.896Z,51.50
2018-11-28T00:23:25.016Z,54.10
2018-11-28T00:24:59.143Z,53.08
2018-11-28T00:26:33.327Z,54.80
2018-11-28T00:28:07.474Z,53.48
2018-11-28T00:29:41.603Z,54.08
2018-11-28T00:31:15.769Z,51.75
2018-11-28T00:32:49.912Z,52.83
2018-11-28T00:34:24.068Z,55.17
2018-11-28T00:35:58.631Z,54.20
2018-11-28T00:37:32.832Z,54.10
2018-11-28T00:39:08.851Z,49.10
2018-11-28T00:40:42.965Z,52.25
2018-11-28T00:42:17.092Z,55.52
2018-11-28T00:43:51.129Z,51.63
2018-11-28T00:45:25.661Z,59.23
2018-11-28T00:46:59.597Z,53.98
2018-11-28T00:48:33.561Z,50.17
2018-11-28T00:50:10.002Z,55.45
2018-11-28T00:51:43.944Z,50.45
2018-11-28T00:53:18.317Z,54.83
2018-11-28T00:54:52.265Z,56.80
2018-11-28T00:56:26.305Z,53.13
2018-11-28T00:58:00.287Z,50.60
2018-11-28T00:59:34.244Z,51.23
2018-11-28T01:01:08.253Z,54.05
2018-11-28T01:02:42.293Z,51.98
2018-11-28T01:04:16.241Z,52.67
2018-11-28T01:05:50.225Z,51.63
2018-11-28T01:07:24.183Z,44.98
2018-11-28T01:08:59.346Z,51.85
2018-11-28T01:10:34.062Z,51.55
2018-11-28T01:12:08.050Z,45.88
2018-11-28T01:13:42.066Z,49.60
2018-11-28T01:15:16.923Z,47.10
2018-11-28T01:16:50.893Z,51.88
2018-11-28T01:18:24.885Z,56.80
2018-11-28T01:19:58.830Z,59.18
2018-11-28T01:21:32.766Z,52.05
2018-11-28T01:23:06.797Z,52.67
2018-11-28T01:24:40.763Z,49.98
2018-11-28T01:26:14.713Z,49.77
2018-11-28T01:27:48.736Z,50.10
2018-11-28T01:29:22.679Z,48.78
2018-11-28T01:30:56.706Z,53.68
2018-11-28T01:32:31.034Z,57.53
2018-11-28T01:34:04.967Z,56.50
2018-11-28T01:35:38.923Z,57.35
2018-11-28T01:37:12.980Z,55.43
2018-11-28T01:38:46.929Z,51.53
2018-11-28T01:40:22.284Z,57.98
2018-11-28T01:41:56.241Z,52.00
2018-11-28T01:43:30.257Z,54.35
2018-11-28T01:45:04.274Z,53.25
2018-11-28T01:46:38.199Z,55.30
2018-11-28T01:48:12.130Z,52.25
2018-11-28T01:49:46.095Z,52.62
2018-11-28T01:51:20.030Z,53.68
2018-11-28T01:52:53.977Z,51.48
2018-11-28T01:54:27.943Z,51.80
2018-11-28T01:56:01.930Z,50.55
2018-11-28T01:57:35.898Z,49.63
2018-11-28T01:59:09.827Z,48.45
2018-11-28T02:00:43.763Z,45.67
2018-11-28T02:02:17.770Z,48.55
2018-11-28T02:03:51.823Z,52.38
2018-11-28T02:05:25.804Z,45.83
2018-11-28T02:06:59.745Z,46.85
2018-11-28T02:08:33.763Z,47.38
2018-11-28T02:10:11.889Z,48.48
2018-11-28T02:11:45.833Z,50.08
2018-11-28T02:13:19.779Z,46.83
2018-11-28T02:14:53.797Z,49.33
2018-11-28T02:16:27.718Z,47.05
2018-11-28T02:18:01.653Z,45.48
2018-11-28T02:19:35.610Z,49.20
2018-11-28T02:21:09.657Z,46.35
2018-11-28T02:22:43.658Z,45.48
2018-11-28T02:24:17.683Z,46.58
2018-11-28T02:25:51.621Z,48.83
2018-11-28T02:27:25.617Z,44.65
2018-11-28T02:28:59.573Z,44.63
2018-11-28T02:30:33.497Z,47.20
2018-11-28T02:32:07.421Z,44.83
2018-11-28T02:33:41.446Z,49.90
2018-11-28T02:35:15.969Z,45.08
2018-11-28T02:36:52.875Z,44.25
2018-11-28T02:38:26.839Z,45.40
2018-11-28T02:40:00.870Z,41.73
2018-11-28T02:41:34.866Z,44.77
2018-11-28T02:43:08.866Z,44.55
2018-11-28T02:44:42.934Z,45.10
2018-11-28T02:46:30.013Z,43.80
2018-11-28T02:48:04.086Z,44.65
2018-11-28T02:49:38.033Z,43.23
2018-11-28T02:51:12.124Z,43.85
2018-11-28T02:52:46.160Z,39.53
2018-11-28T02:54:20.206Z,42.15
2018-11-28T02:55:54.167Z,46.33
2018-11-28T02:57:28.142Z,45.88
2018-11-28T02:59:02.090Z,44.88
2018-11-28T03:00:36.117Z,45.17
2018-11-28T03:02:10.049Z,42.05
2018-11-28T03:03:43.984Z,44.10
2018-11-28T03:05:18.001Z,41.92
2018-11-28T03:06:52.071Z,42.93
2018-11-28T03:08:26.025Z,41.53
2018-11-28T03:10:09.762Z,42.80
2018-11-28T03:11:43.639Z,42.33
2018-11-28T03:13:17.810Z,38.58
2018-11-28T03:14:51.786Z,44.23
2018-11-28T03:16:29.039Z,45.03
2018-11-28T03:18:03.034Z,44.45
2018-11-28T03:19:37.019Z,45.83
2018-11-28T03:21:10.909Z,47.85
2018-11-28T03:22:45.286Z,48.70
2018-11-28T03:24:19.958Z,49.75
2018-11-28T03:25:57.785Z,52.20
2018-11-28T03:27:31.790Z,51.90
2018-11-28T03:29:05.863Z,51.08
2018-11-28T03:30:40.027Z,43.85
2018-11-28T03:32:14.075Z,48.80
2018-11-28T03:33:48.048Z,45.30
2018-11-28T03:35:22.077Z,48.17
2018-11-28T03:36:56.014Z,45.23
2018-11-28T03:38:30.071Z,44.42
2018-11-28T03:40:04.021Z,43.33
2018-11-28T03:41:37.991Z,42.50
2018-11-28T03:43:11.954Z,45.55
2018-11-28T03:44:46.055Z,46.80
2018-11-28T03:46:20.131Z,45.95
2018-11-28T03:47:54.081Z,44.83
2018-11-28T03:49:28.719Z,47.35
2018-11-28T03:51:02.819Z,46.45
2018-11-28T03:52:36.835Z,46.30
2018-11-28T03:54:10.953Z,44.45
2018-11-28T03:55:44.958Z,45.52
2018-11-28T03:57:19.854Z,46.85
2018-11-28T03:58:55.409Z,43.23
2018-11-28T04:00:29.382Z,38.17
2018-11-28T04:02:03.381Z,41.40
2018-11-28T04:03:37.427Z,36.00
2018-11-28T04:05:11.965Z,42.33
2018-11-28T04:06:46.038Z,41.42
2018-11-28T04:08:20.080Z,44.63
2018-11-28T04:09:54.138Z,44.00
2018-11-28T04:11:28.227Z,41.40
2018-11-28T04:13:02.174Z,42.88
2018-11-28T04:14:36.182Z,46.58
2018-11-28T04:16:10.310Z,47.65
2018-11-28T04:17:44.385Z,44.83
2018-11-28T04:19:18.622Z,39.58
2018-11-28T04:20:52.802Z,41.55
2018-11-28T04:22:26.859Z,41.42
2018-11-28T04:24:00.970Z,44.73
2018-11-28T04:25:35.579Z,41.80
2018-11-28T04:27:09.594Z,42.38
2018-11-28T04:28:43.606Z,39.25
2018-11-28T04:30:19.498Z,38.08
2018-11-28T04:31:53.474Z,43.87
2018-11-28T04:33:27.442Z,42.55
2018-11-28T04:35:01.487Z,44.90
2018-11-28T04:36:35.485Z,40.05
2018-11-28T04:38:09.448Z,39.30
2018-11-28T04:39:43.679Z,38.85
2018-11-28T04:41:17.686Z,42.40
2018-11-28T04:42:51.986Z,43.33
2018-11-28T04:44:25.979Z,41.10
2018-11-28T04:45:59.981Z,38.33
2018-11-28T04:47:34.005Z,38.63
2018-11-28T04:49:07.975Z,34.67
2018-11-28T04:50:41.981Z,39.13
2018-11-28T04:52:16.769Z,37.03
2018-11-28T04:53:50.807Z,35.30
2018-11-28T04:55:24.780Z,36.05
2018-11-28T04:56:58.758Z,37.50
2018-11-28T04:58:32.781Z,36.13
2018-11-28T05:00:10.147Z,38.00
2018-11-28T05:01:44.171Z,37.23
2018-11-28T05:03:18.170Z,38.42
2018-11-28T05:04:52.110Z,36.90
2018-11-28T05:07:33.299Z,35.10
2018-11-28T05:09:07.431Z,38.40
2018-11-28T05:10:41.482Z,36.95
2018-11-28T05:12:15.611Z,39.27
2018-11-28T05:13:49.559Z,42.27
2018-11-28T05:15:25.662Z,37.17
2018-11-28T05:16:59.703Z,36.80
2018-11-28T05:18:33.662Z,35.28
2018-11-28T05:20:10.250Z,42.05
2018-11-28T05:21:44.439Z,36.17
2018-11-28T05:23:18.387Z,38.02
2018-11-28T05:24:52.324Z,41.25
2018-11-28T05:26:26.550Z,38.42
2018-11-28T05:28:00.570Z,41.90
2018-11-28T05:29:34.558Z,37.50
2018-11-28T05:31:08.473Z,37.85
2018-11-28T05:32:42.529Z,37.93
2018-11-28T05:34:16.535Z,33.90
2018-11-28T05:35:50.451Z,38.30
2018-11-28T05:37:24.383Z,37.70
2018-11-28T05:38:58.402Z,34.88
2018-11-28T05:40:32.349Z,35.25
2018-11-28T05:42:06.454Z,36.70
2018-11-28T05:43:40.435Z,30.92
2018-11-28T05:45:14.442Z,32.88
2018-11-28T05:46:48.419Z,37.30
2018-11-28T05:48:22.425Z,35.63
2018-11-28T05:49:56.362Z,35.80
2018-11-28T05:51:30.348Z,36.08
2018-11-28T05:53:04.358Z,38.98
2018-11-28T05:54:38.349Z,41.95
2018-11-28T05:56:12.420Z,39.27
2018-11-28T05:57:46.465Z,37.55
2018-11-28T05:59:20.394Z,36.13
2018-11-28T06:00:54.355Z,34.65
2018-11-28T06:02:29.004Z,39.70
2018-11-28T06:04:03.060Z,37.23
2018-11-28T06:05:37.161Z,40.55
2018-11-28T06:07:11.118Z,34.40
2018-11-28T06:08:45.171Z,38.78
2018-11-28T06:10:19.142Z,34.35
2018-11-28T06:11:53.124Z,38.65
2018-11-28T06:13:27.099Z,33.63
2018-11-28T06:15:01.130Z,35.48
2018-11-28T06:16:35.238Z,35.30
2018-11-28T06:18:09.843Z,34.25
2018-11-28T06:19:43.834Z,34.83
2018-11-28T06:21:17.871Z,35.05
2018-11-28T06:22:51.853Z,33.45
2018-11-28T06:24:25.831Z,34.67
2018-11-28T06:25:59.771Z,35.75
2018-11-28T06:27:33.781Z,33.18
2018-11-28T06:29:08.107Z,35.17
2018-11-28T06:30:42.100Z,36.83
2018-11-28T06:32:16.031Z,33.70
2018-11-28T06:33:49.996Z,35.25
2018-11-28T06:35:23.969Z,37.23
2018-11-28T06:36:58.025Z,31.27
2018-11-28T06:38:31.950Z,31.62
2018-11-28T06:40:10.786Z,35.95
2018-11-28T06:41:44.857Z,35.88
2018-11-28T06:43:18.911Z,35.13
2018-11-28T06:44:52.898Z,34.83
2018-11-28T06:46:26.854Z,35.15
2018-11-28T06:48:00.802Z,39.83
2018-11-28T06:49:34.857Z,42.53
2018-11-28T06:51:08.821Z,40.25
2018-11-28T06:52:43.217Z,34.73
2018-11-28T06:54:17.160Z,36.50
2018-11-28T06:55:51.214Z,37.30
2018-11-28T06:57:25.212Z,35.13
2018-11-28T06:58:59.128Z,40.50
2018-11-28T07:00:33.097Z,37.90
2018-11-28T07:02:07.094Z,36.38
2018-11-28T07:03:41.060Z,42.40
2018-11-28T07:05:15.066Z,42.65
2018-11-28T07:06:49.016Z,45.95
2018-11-28T07:08:23.123Z,38.80
2018-11-28T07:09:57.101Z,42.38
2018-11-28T07:11:31.101Z,43.15
2018-11-28T07:13:15.310Z,48.38
2018-11-28T07:14:51.322Z,42.00
2018-11-28T07:16:25.707Z,43.68
2018-11-28T07:18:11.060Z,41.68
2018-11-28T07:19:45.433Z,46.37
2018-11-28T07:21:19.879Z,46.13
2018-11-28T07:22:54.204Z,43.40
2018-11-28T07:24:28.594Z,42.23
2018-11-28T07:26:02.878Z,46.58
2018-11-28T07:27:37.296Z,51.48
2018-11-28T07:31:28.048Z,46.10
2018-11-28T07:33:02.613Z,49.53
2018-11-28T07:34:37.114Z,50.23
2018-11-28T07:36:11.431Z,49.15
2018-11-28T07:37:45.760Z,50.88
2018-11-28T07:39:26.710Z,44.98
2018-11-28T07:41:01.068Z,47.35
2018-11-28T07:42:35.377Z,47.95
2018-11-28T07:44:09.767Z,42.73
2018-11-28T07:45:48.476Z,41.13
2018-11-28T07:47:23.033Z,41.88
2018-11-28T07:48:57.434Z,45.33
2018-11-28T07:50:31.915Z,40.98
2018-11-28T07:52:06.318Z,40.78
2018-11-28T07:53:40.858Z,43.00
2018-11-28T07:55:15.316Z,39.60
2018-11-28T07:56:49.694Z,41.13
2018-11-28T07:58:24.130Z,40.40
2018-11-28T07:59:58.689Z,41.42
2018-11-28T08:01:39.232Z,37.20
2018-11-28T08:03:13.806Z,40.90
2018-11-28T08:04:49.101Z,41.40
2018-11-28T08:06:23.462Z,39.00
2018-11-28T08:07:57.727Z,43.13
2018-11-28T08:09:32.151Z,40.92
2018-11-28T08:11:07.452Z,41.23
2018-11-28T08:12:41.814Z,40.58
2018-11-28T08:14:16.527Z,37.33
2018-11-28T08:15:50.816Z,40.30
2018-11-28T08:17:25.147Z,37.10
2018-11-28T08:19:05.851Z,42.50
2018-11-28T08:20:43.335Z,47.23
2018-11-28T08:22:17.723Z,41.48
2018-11-28T08:23:52.102Z,43.85
2018-11-28T08:25:27.961Z,43.33
2018-11-28T08:27:01.107Z,47.05
2018-11-28T08:28:36.144Z,37.30
2018-11-28T08:30:15.368Z,40.33
2018-11-28T08:31:49.634Z,43.45
2018-11-28T08:33:23.973Z,39.65
2018-11-28T08:34:58.193Z,40.60
2018-11-28T08:36:32.407Z,41.50
2018-11-28T08:38:07.040Z,38.50
2018-11-28T08:39:41.489Z,44.50
2018-11-28T08:41:15.714Z,34.53
2018-11-28T08:42:49.929Z,39.05
2018-11-28T08:44:24.211Z,39.92
2018-11-28T08:45:58.376Z,43.55
2018-11-28T08:47:32.542Z,42.78
2018-11-28T08:49:07.058Z,41.53
2018-11-28T08:50:42.744Z,40.20
2018-11-28T08:52:16.892Z,41.02
2018-11-28T08:53:51.029Z,43.20
2018-11-28T08:55:25.823Z,42.15
2018-11-28T08:56:59.960Z,43.68
2018-11-28T08:58:34.135Z,43.05
2018-11-28T09:00:14.759Z,42.98
2018-11-28T09:01:56.535Z,47.78
2018-11-28T09:03:39.727Z,42.43
2018-11-28T09:05:27.703Z,44.58
2018-11-28T09:07:08.354Z,46.30
2018-11-28T09:08:46.645Z,43.83
2018-11-28T09:10:28.964Z,42.65
2018-11-28T09:12:09.506Z,40.67
2018-11-28T09:13:54.825Z,38.80
2018-11-28T09:15:35.724Z,41.20
2018-11-28T09:17:15.183Z,44.30
2018-11-28T09:18:47.356Z,39.13
2018-11-28T09:20:23.400Z,38.23
2018-11-28T09:22:05.426Z,42.53
2018-11-28T09:25:41.611Z,38.95
2018-11-28T09:27:23.628Z,41.98
2018-11-28T09:29:01.968Z,41.73
2018-11-28T09:30:39.850Z,38.13
2018-11-28T09:32:16.978Z,37.20
2018-11-28T09:33:51.131Z,44.35
2018-11-28T09:35:25.124Z,39.38
2018-11-28T09:36:59.103Z,42.80
2018-11-28T09:38:33.213Z,37.28
2018-11-28T09:40:23.057Z,42.05
2018-11-28T09:41:57.069Z,40.40
2018-11-28T09:43:31.059Z,42.98
2018-11-28T09:45:05.162Z,38.55
2018-11-28T09:46:39.155Z,39.83
2018-11-28T09:48:13.132Z,43.42
2018-11-28T09:49:47.145Z,43.33
2018-11-28T09:51:21.217Z,39.90
2018-11-28T09:52:55.277Z,43.95
2018-11-28T09:54:29.335Z,43.10
2018-11-28T09:56:03.396Z,38.65
2018-11-28T09:57:37.450Z,39.80
2018-11-28T09:59:11.442Z,35.98
2018-11-28T10:00:45.444Z,35.25
2018-11-28T10:02:19.459Z,43.55
2018-11-28T10:03:53.531Z,33.80
2018-11-28T10:05:32.784Z,38.42
2018-11-28T10:07:07.008Z,36.05
2018-11-28T10:08:40.999Z,38.00
2018-11-28T10:10:15.238Z,36.23
2018-11-28T10:11:49.202Z,36.10
2018-11-28T10:13:23.237Z,37.48
2018-11-28T10:14:57.272Z,34.40
2018-11-28T10:16:31.323Z,31.55
2018-11-28T10:18:05.467Z,36.58
2018-11-28T10:19:39.448Z,37.50
2018-11-28T10:21:13.472Z,32.55
2018-11-28T10:22:48.089Z,39.10
2018-11-28T10:24:22.115Z,39.00
2018-11-28T10:25:56.155Z,40.05
2018-11-28T10:27:30.175Z,36.83
2018-11-28T10:29:04.227Z,36.75
2018-11-28T10:30:39.725Z,33.48
2018-11-28T10:32:13.727Z,39.20
2018-11-28T10:33:47.730Z,35.10
2018-11-28T10:35:21.790Z,33.80
2018-11-28T10:36:55.756Z,36.70
2018-11-28T10:38:29.803Z,32.67
2018-11-28T10:40:03.826Z,34.78
2018-11-28T10:41:37.814Z,33.95
2018-11-28T10:43:11.914Z,34.43
2018-11-28T10:44:46.011Z,31.05
2018-11-28T10:46:19.976Z,31.40
2018-11-28T10:47:53.936Z,35.00
2018-11-28T10:49:27.921Z,31.15
2018-11-28T10:51:01.952Z,31.85
2018-11-28T10:52:35.964Z,28.67
2018-11-28T10:54:09.918Z,31.37
2018-11-28T10:55:43.914Z,28.45
2018-11-28T10:57:17.938Z,33.58
2018-11-28T10:58:51.951Z,29.90
2018-11-28T11:00:32.183Z,28.30
2018-11-28T11:02:11.547Z,30.25
2018-11-28T11:03:55.412Z,32.10
2018-11-28T11:05:34.587Z,31.97
2018-11-28T11:07:13.751Z,29.70
2018-11-28T11:08:53.005Z,32.63
2018-11-28T11:10:32.006Z,31.85
2018-11-28T11:12:07.463Z,32.90
2018-11-28T11:13:41.862Z,29.35
2018-11-28T11:15:15.843Z,31.02
2018-11-28T11:16:49.935Z,30.65
2018-11-28T11:18:23.996Z,29.75
2018-11-28T11:19:58.100Z,25.70
2018-11-28T11:21:32.079Z,20.85
2018-11-28T11:23:08.359Z,19.80
2018-11-28T11:24:41.367Z,19.55
2018-11-28T11:26:15.395Z,20.57
2018-11-28T11:27:49.399Z,16.70
2018-11-28T11:29:24.391Z,17.50
2018-11-28T11:30:58.436Z,19.20
2018-11-28T11:32:32.509Z,17.90
2018-11-28T11:34:07.095Z,17.62
2018-11-28T11:35:47.563Z,15.13
2018-11-28T11:37:21.604Z,16.75
2018-11-28T11:38:55.655Z,18.75
2018-11-28T11:40:29.685Z,17.07
2018-11-28T11:42:03.679Z,17.37
2018-11-28T11:43:37.714Z,17.27
2018-11-28T11:45:13.210Z,19.00
2018-11-28T11:46:48.076Z,16.20
2018-11-28T11:48:21.319Z,20.65
2018-11-28T11:49:55.343Z,16.97
2018-11-28T11:51:29.409Z,20.68
2018-11-28T11:53:03.410Z,17.20
2018-11-28T11:54:37.400Z,18.90
2018-11-28T11:56:11.384Z,17.30
2018-11-28T11:57:45.444Z,17.87
2018-11-28T11:59:19.407Z,18.92
2018-11-28T12:00:53.526Z,20.37
2018-11-28T12:02:27.531Z,18.75
2018-11-28T12:04:01.640Z,18.95
2018-11-28T12:05:35.802Z,19.50
2018-11-28T12:07:09.766Z,17.77
2018-11-28T12:08:43.791Z,17.55
2018-11-28T12:10:17.867Z,15.05
2018-11-28T12:11:51.875Z,19.50
2018-11-28T12:13:25.866Z,16.25
2018-11-28T12:14:59.864Z,17.82
2018-11-28T12:16:33.872Z,17.37
2018-11-28T12:18:07.928Z,15.88
2018-11-28T12:19:41.916Z,16.95
2018-11-28T12:21:15.927Z,17.37
2018-11-28T12:22:49.967Z,17.87
2018-11-28T12:24:23.934Z,17.55
2018-11-28T12:25:57.954Z,14.75
2018-11-28T12:27:31.939Z,15.48
2018-11-28T12:29:06.602Z,15.28
2018-11-28T12:30:40.616Z,17.15
2018-11-28T12:32:14.624Z,18.20
2018-11-28T12:33:48.599Z,15.68
2018-11-28T12:35:22.731Z,16.62
2018-11-28T12:36:56.723Z,17.48
2018-11-28T12:38:30.694Z,16.42
2018-11-28T12:40:05.755Z,19.15
2018-11-28T12:41:39.811Z,14.73
2018-11-28T12:43:13.834Z,17.23
2018-11-28T12:44:47.839Z,13.98
2018-11-28T12:46:21.883Z,14.87
2018-11-28T12:47:55.945Z,15.28
2018-11-28T12:49:29.894Z,16.27
2018-11-28T12:51:03.893Z,16.90
2018-11-28T12:52:37.874Z,14.87
2018-11-28T12:54:11.898Z,13.00
2018-11-28T12:55:46.064Z,15.55
2018-11-28T12:57:22.901Z,17.32
2018-11-28T12:59:08.290Z,16.95
2018-11-28T13:01:00.615Z,14.23
2018-11-28T13:02:38.410Z,15.55
2018-11-28T13:04:31.097Z,17.17
2018-11-28T13:08:08.439Z,16.82
2018-11-28T13:09:56.403Z,17.12
2018-11-28T13:11:38.790Z,16.73
2018-11-28T13:13:13.197Z,14.45
2018-11-28T13:14:47.294Z,17.77
2018-11-28T13:16:21.255Z,16.75
2018-11-28T13:17:55.372Z,18.50
2018-11-28T13:19:29.510Z,15.53
2018-11-28T13:21:03.705Z,19.00
2018-11-28T13:22:41.708Z,17.48
2018-11-28T13:24:16.052Z,16.57
2018-11-28T13:25:50.288Z,20.20
2018-11-28T13:27:24.547Z,19.50
2018-11-28T13:28:58.690Z,18.42
2018-11-28T13:30:33.121Z,19.77
2018-11-28T13:32:07.901Z,17.32
2018-11-28T13:33:41.579Z,16.70
2018-11-28T13:35:20.565Z,18.42
2018-11-28T13:36:54.702Z,19.62
2018-11-28T13:38:28.762Z,19.37
2018-11-28T13:40:02.793Z,17.48
2018-11-28T13:41:37.066Z,20.80
2018-11-28T13:43:11.240Z,19.48
2018-11-28T13:44:45.266Z,18.27
2018-11-28T13:46:25.229Z,16.07
2018-11-28T13:47:59.530Z,20.88
2018-11-28T13:49:33.780Z,19.37
2018-11-28T13:51:16.919Z,18.42
2018-11-28T14:05:38.720Z,13.90
2018-11-28T14:07:12.964Z,20.57
2018-11-28T14:08:47.046Z,20.45
2018-11-28T14:10:22.112Z,22.27
2018-11-28T14:11:56.339Z,18.60
2018-11-28T14:13:33.215Z,18.45
2018-11-28T14:15:17.002Z,19.90
2018-11-28T14:16:51.083Z,17.52
2018-11-28T14:18:25.104Z,18.07
2018-11-28T14:19:59.054Z,17.07
2018-11-28T14:21:32.986Z,21.07
2018-11-28T14:23:06.951Z,19.25
2018-11-28T14:24:40.944Z,18.48
2018-11-28T14:26:14.969Z,20.60
2018-11-28T14:27:48.943Z,18.70
2018-11-28T14:29:22.877Z,16.93
2018-11-28T14:30:56.918Z,18.27
2018-11-28T14:32:31.000Z,20.70
2018-11-28T14:34:04.939Z,19.70
2018-11-28T14:36:41.956Z,18.32
2018-11-28T14:38:15.976Z,17.70
2018-11-28T14:39:52.870Z,19.20
2018-11-28T14:41:26.790Z,21.05
2018-11-28T14:43:00.869Z,21.00
2018-11-28T14:44:34.795Z,20.57
2018-11-28T14:46:08.741Z,22.37
2018-11-28T14:47:42.852Z,20.50
2018-11-28T14:49:16.872Z,18.42
2018-11-28T14:50:50.866Z,19.35
2018-11-28T14:52:24.846Z,21.17
2018-11-28T14:53:58.828Z,18.62
2018-11-28T14:55:37.181Z,23.18
2018-11-28T14:57:11.154Z,21.87
2018-11-28T14:58:45.134Z,19.30
2018-11-28T15:00:22.301Z,19.70
2018-11-28T15:01:56.514Z,22.60
2018-11-28T15:03:30.422Z,19.92
2018-11-28T15:05:04.589Z,22.30
2018-11-28T15:06:46.211Z,21.90
2018-11-28T15:08:20.270Z,21.62
2018-11-28T15:10:00.405Z,22.77
2018-11-28T15:11:34.379Z,26.25
2018-11-28T15:13:08.276Z,23.18
2018-11-28T15:14:42.241Z,24.95
2018-11-28T15:16:16.146Z,25.05
2018-11-28T15:17:50.093Z,21.30
2018-11-28T15:19:24.047Z,24.47
2018-11-28T15:20:58.074Z,23.98
2018-11-28T15:22:31.967Z,24.20
2018-11-28T15:24:06.158Z,23.73
2018-11-28T15:25:40.059Z,24.63
2018-11-28T15:27:14.034Z,29.20
2018-11-28T15:28:47.949Z,25.72
2018-11-28T15:30:21.838Z,25.43
2018-11-28T15:31:55.756Z,25.00
2018-11-28T15:33:29.721Z,25.92
2018-11-28T15:35:03.671Z,24.47
2018-11-28T15:36:37.570Z,24.63
2018-11-28T15:38:11.497Z,27.42
2018-11-28T15:39:45.465Z,26.73
2018-11-28T15:41:19.564Z,26.07
2018-11-28T15:42:53.627Z,24.60
2018-11-28T15:44:27.575Z,24.80
2018-11-28T15:46:01.514Z,30.20
2018-11-28T15:47:35.555Z,25.95
2018-11-28T15:49:09.655Z,26.05
2018-11-28T15:50:44.480Z,27.17
2018-11-28T15:52:18.458Z,25.95
2018-11-28T15:53:52.418Z,27.40
2018-11-28T15:55:26.332Z,24.18
2018-11-28T15:57:00.235Z,26.23
2018-11-28T15:58:34.131Z,26.30
2018-11-28T16:00:13.969Z,23.45
2018-11-28T16:01:48.126Z,23.67
2018-11-28T16:03:21.881Z,24.55
2018-11-28T16:04:56.634Z,26.17
2018-11-28T16:06:31.505Z,24.18
2018-11-28T16:08:04.603Z,26.60
2018-11-28T16:09:43.803Z,24.85
2018-11-28T16:11:18.479Z,25.85
2018-11-28T16:12:52.526Z,24.07
2018-11-28T16:14:26.459Z,26.93
2018-11-28T16:16:00.401Z,23.15
2018-11-28T16:17:34.315Z,21.97
2018-11-28T16:19:08.299Z,26.75
2018-11-28T16:20:42.190Z,24.10
2018-11-28T16:22:16.140Z,23.27
2018-11-28T16:23:50.076Z,23.92
2018-11-28T16:25:24.063Z,21.12
2018-11-28T16:26:58.009Z,23.32
2018-11-28T16:28:31.926Z,24.23
2018-11-28T16:30:10.814Z,25.82
2018-11-28T16:31:44.812Z,21.87
2018-11-28T16:33:18.714Z,21.65
2018-11-28T16:34:52.608Z,23.07
2018-11-28T16:36:26.813Z,24.52
2018-11-28T16:38:00.824Z,23.47
2018-11-28T16:39:34.921Z,22.62
2018-11-28T16:41:09.208Z,23.38
2018-11-28T16:42:43.142Z,23.40
2018-11-28T16:44:17.201Z,22.62
2018-11-28T16:45:51.293Z,23.85
2018-11-28T16:47:25.510Z,24.43
2018-11-28T16:48:59.457Z,22.75
2018-11-28T16:50:33.498Z,23.35
2018-11-28T16:52:07.459Z,19.35
2018-11-28T16:53:41.429Z,23.35
2018-11-28T16:55:16.927Z,20.05
2018-11-28T16:56:50.905Z,19.67
2018-11-28T16:58:24.854Z,22.85
2018-11-28T16:59:58.815Z,22.95
2018-11-28T17:01:33.076Z,20.52
2018-11-28T17:03:07.229Z,20.08
2018-11-28T17:04:41.170Z,22.58
2018-11-28T17:06:15.239Z,20.37
2018-11-28T17:07:49.441Z,21.57
2018-11-28T17:09:23.486Z,20.77
2018-11-28T17:10:57.657Z,21.23
2018-11-28T17:12:31.977Z,20.75
2018-11-28T17:14:06.418Z,23.57
2018-11-28T17:15:40.487Z,22.30
2018-11-28T17:17:14.385Z,23.67
2018-11-28T17:18:48.342Z,21.48
2018-11-28T17:20:26.316Z,22.00
2018-11-28T17:22:00.299Z,25.62
2018-11-28T17:23:34.217Z,23.10
2018-11-28T17:25:13.246Z,23.25
2018-11-28T17:26:47.153Z,22.85
2018-11-28T17:28:21.156Z,21.65
2018-11-28T17:29:55.078Z,24.95
2018-11-28T17:31:28.990Z,18.62
2018-11-28T17:33:02.894Z,22.37
2018-11-28T17:34:37.123Z,21.65
2018-11-28T17:36:11.278Z,23.02
2018-11-28T17:37:45.468Z,20.55
2018-11-28T17:39:19.630Z,20.82
2018-11-28T17:40:53.644Z,25.62
2018-11-28T17:42:28.169Z,22.17
2018-11-28T17:44:02.120Z,25.37
2018-11-28T17:45:36.065Z,23.55
2018-11-28T17:47:10.165Z,24.43
2018-11-28T17:48:44.069Z,24.85
2018-11-28T17:50:21.579Z,28.07
2018-11-28T17:51:56.138Z,26.82
2018-11-28T17:53:30.774Z,28.67
2018-11-28T17:55:05.665Z,29.00
2018-11-28T17:56:39.678Z,31.12
2018-11-28T17:58:13.602Z,33.45
2018-11-28T17:59:47.598Z,30.75
2018-11-28T18:01:21.520Z,30.25
2018-11-28T18:02:55.452Z,31.68
2018-11-28T18:04:30.255Z,32.75
2018-11-28T18:06:03.536Z,34.10
2018-11-28T18:07:37.521Z,35.85
2018-11-28T18:09:12.091Z,34.00
2018-11-28T18:10:45.977Z,36.63
2018-11-28T18:12:20.365Z,35.30
2018-11-28T18:13:54.251Z,33.28
2018-11-28T18:15:28.466Z,36.13
2018-11-28T18:17:02.343Z,37.67
2018-11-28T18:18:36.330Z,38.17
2018-11-28T18:20:10.225Z,35.28
2018-11-28T18:21:44.142Z,35.28
2018-11-28T18:23:18.050Z,35.15
2018-11-28T18:24:52.030Z,35.28
2018-11-28T18:26:27.147Z,34.35
2018-11-28T18:28:01.058Z,37.85
2018-11-28T18:29:34.938Z,36.03
2018-11-28T18:31:08.928Z,37.45
2018-11-28T18:32:42.944Z,34.78
2018-11-28T18:34:17.082Z,35.95
2018-11-28T18:35:51.025Z,36.98
2018-11-28T18:37:25.018Z,40.38
2018-11-28T18:38:58.963Z,42.55
2018-11-28T18:40:32.921Z,37.75
2018-11-28T18:42:06.815Z,36.77
2018-11-28T18:43:40.777Z,38.33
2018-11-28T18:45:18.390Z,35.38
2018-11-28T18:46:51.898Z,34.55
2018-11-28T18:48:25.886Z,36.68
2018-11-28T18:49:59.821Z,41.50
2018-11-28T18:51:33.770Z,39.95
2018-11-28T18:53:07.883Z,36.10
2018-11-28T18:54:41.870Z,36.10
2018-11-28T18:56:15.795Z,38.40
2018-11-28T18:57:51.411Z,38.95
2018-11-28T18:59:25.412Z,35.70
2018-11-28T19:00:59.515Z,38.58
2018-11-28T19:02:34.391Z,37.03
2018-11-28T19:04:08.595Z,40.00
2018-11-28T19:05:43.016Z,41.80
2018-11-28T19:07:17.815Z,36.98
2018-11-28T19:08:51.943Z,35.35
2018-11-28T19:10:26.988Z,35.63
2018-11-28T19:12:00.282Z,36.93
2018-11-28T19:13:35.617Z,36.08
2018-11-28T19:15:12.923Z,34.88
2018-11-28T19:16:46.923Z,34.85
2018-11-28T19:18:20.988Z,34.35
2018-11-28T19:19:55.040Z,39.45
2018-11-28T19:21:31.694Z,35.70
2018-11-28T19:40:24.126Z,33.02
2018-11-28T19:41:58.472Z,30.37
2018-11-28T19:43:39.664Z,29.27
2018-11-28T19:45:27.265Z,28.42
2018-11-28T19:47:01.622Z,27.85
2018-11-28T19:48:35.892Z,26.70
2018-11-28T19:50:19.443Z,30.92
2018-11-28T19:52:23.524Z,26.15
2018-11-28T19:54:18.211Z,28.73
2018-11-28T19:55:58.272Z,29.55
2018-11-28T19:57:54.505Z,25.48
2018-11-28T19:59:36.223Z,26.37
2018-11-28T20:01:14.954Z,27.48
2018-11-28T20:02:55.822Z,28.62
2018-11-28T20:08:21.532Z,27.42
2018-11-28T20:10:02.387Z,26.95
2018-11-28T20:11:46.229Z,31.77
2018-11-28T20:13:23.658Z,27.40
2018-11-28T20:14:59.023Z,27.32
2018-11-28T20:16:42.442Z,26.65
2018-11-28T20:18:27.069Z,27.82
2018-11-28T20:20:02.985Z,29.10
2018-11-28T20:21:38.593Z,28.38
2018-11-28T20:23:19.900Z,30.40
2018-11-28T20:24:59.948Z,26.20
2018-11-28T20:26:43.267Z,27.60
2018-11-28T20:28:17.947Z,27.77
2018-11-28T20:29:52.239Z,30.37
2018-11-28T20:31:26.450Z,32.70
2018-11-28T20:33:00.753Z,30.77
2018-11-28T20:34:35.024Z,29.27
2018-11-28T20:36:09.242Z,33.90
2018-11-28T20:37:43.745Z,28.02
2018-11-28T20:39:18.180Z,30.32
2018-11-28T20:40:52.506Z,29.20
2018-11-28T20:42:26.787Z,33.63
2018-11-28T20:44:01.084Z,32.17
2018-11-28T20:45:35.459Z,34.58
2018-11-28T20:47:19.289Z,36.30
2018-11-28T20:48:56.624Z,39.35
2018-11-28T20:50:34.538Z,39.88
2018-11-28T20:52:09.819Z,39.70
2018-11-28T20:53:44.548Z,39.55
2018-11-28T20:55:48.761Z,40.67
2018-11-28T20:57:37.759Z,37.50
2018-11-28T20:59:30.056Z,39.25
2018-11-28T21:01:10.072Z,42.40
2018-11-28T21:02:54.711Z,40.58
2018-11-28T21:04:30.436Z,46.02
2018-11-28T21:06:20.871Z,48.70
2018-11-28T21:07:57.291Z,46.70